createdAt,value
2023-01-05T00:00:38.918Z,100320.56
2023-01-05T00:05:40.991Z,100328.47
2023-01-05T00:10:42.960Z,100333.09
2023-01-05T00:15:45.988Z,100326.06
2023-01-05T00:20:48.083Z,100326.81
2023-01-05T00:25:49.745Z,100325.09
2023-01-05T00:30:52.751Z,100317.16
2023-01-05T00:35:54.764Z,100319.66
2023-01-05T00:40:56.440Z,100310.78
2023-01-05T00:45:59.709Z,100323.13
2023-01-05T00:51:01.783Z,100327.47
2023-01-05T00:56:04.339Z,100316.78
2023-01-05T01:01:10.947Z,100313.34
2023-01-05T01:06:13.916Z,100321.38
2023-01-05T01:11:15.987Z,100307.91
2023-01-05T01:16:19.588Z,100314.28
2023-01-05T01:21:21.663Z,100334.47
2023-01-05T01:26:23.742Z,100317.34
2023-01-05T01:31:26.858Z,100324.41
2023-01-05T01:36:29.012Z,100344.75
2023-01-05T01:41:31.205Z,100332.19
2023-01-05T01:46:34.628Z,100325.06
2023-01-05T01:51:40.447Z,100333.66
2023-01-05T01:56:47.895Z,100334.50
2023-01-05T02:01:55.290Z,100333.72
2023-01-05T02:06:58.224Z,100336.44
2023-01-05T02:12:08.442Z,100334.66
2023-01-05T02:17:19.804Z,100332.06
2023-01-05T02:22:43.151Z,100311.00
2023-01-05T02:27:53.816Z,100312.19
2023-01-05T02:33:06.542Z,100320.03
2023-01-05T02:38:18.017Z,100331.59
2023-01-05T02:43:21.044Z,100307.75
2023-01-05T02:48:24.566Z,100320.16
2023-01-05T02:53:31.482Z,100310.63
2023-01-05T02:58:37.383Z,100306.31
2023-01-05T03:03:43.686Z,100323.78
2023-01-05T03:08:51.773Z,100327.25
2023-01-05T03:13:59.659Z,100323.53
2023-01-05T03:19:12.781Z,100328.81
2023-01-05T03:24:14.890Z,100329.41
2023-01-05T03:29:16.949Z,100329.41
2023-01-05T03:34:31.167Z,100329.34
2023-01-05T03:39:35.978Z,100317.81
2023-01-05T03:44:39.579Z,100333.00
2023-01-05T03:49:43.064Z,100329.50
2023-01-05T03:54:45.180Z,100331.25
2023-01-05T03:59:46.966Z,100329.50
2023-01-05T04:04:50.597Z,100337.50
2023-01-05T04:09:52.584Z,100346.38
2023-01-05T04:14:54.646Z,100353.53
2023-01-05T04:19:58.892Z,100355.31
2023-01-05T04:25:00.902Z,100358.19
2023-01-05T04:30:02.656Z,100350.47
2023-01-05T04:35:10.984Z,100360.38
2023-01-05T04:40:13.458Z,100364.00
2023-01-05T04:45:15.516Z,100364.00
2023-01-05T04:50:19.391Z,100363.16
2023-01-05T04:55:21.520Z,100365.69
2023-01-05T05:00:23.226Z,100377.97
2023-01-05T05:05:26.530Z,100369.13
2023-01-05T05:10:28.304Z,100370.66
2023-01-05T05:15:30.030Z,100380.38
2023-01-05T05:20:33.120Z,100384.47
2023-01-05T05:25:34.862Z,100392.50
2023-01-05T05:30:37.960Z,100404.72
2023-01-05T05:35:42.070Z,100407.47
2023-01-05T05:40:44.304Z,100393.16
2023-01-05T05:45:50.419Z,100394.97
2023-01-05T05:50:54.178Z,100387.94
2023-01-05T05:55:55.921Z,100387.97
2023-01-05T06:00:58.503Z,100400.41
2023-01-05T06:06:02.741Z,100404.13
2023-01-05T06:11:05.533Z,100414.97
2023-01-05T06:16:07.863Z,100417.03
2023-01-05T06:21:11.269Z,100429.50
2023-01-05T06:26:12.935Z,100445.31
2023-01-05T06:31:14.633Z,100438.41
2023-01-05T06:36:17.719Z,100447.28
2023-01-05T06:41:19.457Z,100451.75
2023-01-05T06:46:22.256Z,100460.59
2023-01-05T06:51:25.346Z,100475.56
2023-01-05T06:56:27.033Z,100469.47
2023-01-05T07:01:29.170Z,100473.84
2023-01-05T07:06:34.270Z,100473.91
2023-01-05T07:11:36.235Z,100496.78
2023-01-05T07:16:38.494Z,100484.59
2023-01-05T07:21:42.081Z,100523.66
2023-01-05T07:26:43.910Z,100516.66
2023-01-05T07:31:46.138Z,100521.94
2023-01-05T07:36:49.965Z,100514.88
2023-01-05T07:41:52.175Z,100520.16
2023-01-05T07:46:54.089Z,100531.53
2023-01-05T07:51:57.288Z,100527.22
2023-01-05T07:56:59.000Z,100537.75
2023-01-05T08:02:00.857Z,100543.09
2023-01-05T08:07:05.722Z,100549.28
2023-01-05T08:12:08.079Z,100549.28
2023-01-05T08:17:11.308Z,100564.28
2023-01-05T08:22:15.075Z,100573.84
2023-01-05T08:27:17.200Z,100586.09
2023-01-05T08:32:18.947Z,100587.03
2023-01-05T08:37:22.147Z,100590.50
2023-01-05T08:42:23.832Z,100604.59
2023-01-05T08:47:28.448Z,100604.50
2023-01-05T08:52:31.853Z,100620.31
2023-01-05T08:57:33.987Z,100616.63
2023-01-05T09:02:35.975Z,100623.31
2023-01-05T09:07:39.680Z,100641.44
2023-01-05T09:12:41.444Z,100644.94
2023-01-05T09:17:43.217Z,100644.09
2023-01-05T09:22:47.037Z,100667.91
2023-01-05T09:27:49.075Z,100662.69
2023-01-05T09:32:51.106Z,100680.44
2023-01-05T09:37:54.389Z,100702.88
2023-01-05T09:42:56.705Z,100695.91
2023-01-05T09:48:01.153Z,100717.16
2023-01-05T09:53:05.812Z,100710.94
2023-01-05T09:58:15.233Z,100707.44
2023-01-05T10:03:53.589Z,100726.72
2023-01-05T10:08:47.331Z,100737.06
2023-01-05T10:13:59.472Z,100730.72
2023-01-05T10:19:02.178Z,100738.41
2023-01-05T10:24:19.472Z,100726.28
2023-01-05T10:29:27.147Z,100754.09
2023-01-05T10:34:50.276Z,100751.84
2023-01-05T10:40:03.117Z,100767.13
2023-01-05T10:45:10.624Z,100779.75
2023-01-05T10:50:27.653Z,100771.91
2023-01-05T10:55:32.164Z,100780.28
2023-01-05T11:00:42.912Z,100790.03
2023-01-05T11:05:47.126Z,100789.19
2023-01-05T11:10:53.136Z,100799.78
2023-01-05T11:15:56.800Z,100789.50
2023-01-05T11:21:10.383Z,100818.88
2023-01-05T11:26:22.307Z,100797.19
2023-01-05T11:31:27.136Z,100815.84
2023-01-05T11:36:29.470Z,100815.75
2023-01-05T11:41:34.087Z,100822.94
2023-01-05T11:46:43.914Z,100822.97
2023-01-05T11:51:46.104Z,100846.78
2023-01-05T11:57:06.870Z,100848.50
2023-01-05T12:02:50.204Z,100875.81
2023-01-05T12:07:56.530Z,100852.97
2023-01-05T12:13:06.775Z,100867.09
2023-01-05T12:18:25.342Z,100860.91
2023-01-05T12:23:57.975Z,100887.41
2023-01-05T12:31:06.430Z,100902.44
2023-01-05T12:35:17.195Z,100906.81
2023-01-05T12:40:38.754Z,100916.53
2023-01-05T12:46:03.145Z,100930.66
2023-01-05T12:51:13.085Z,100932.44
2023-01-05T12:56:23.349Z,100935.03
2023-01-05T13:01:31.711Z,100942.06
2023-01-05T13:06:37.556Z,100961.53
2023-01-05T13:11:45.920Z,100974.81
2023-01-05T13:16:58.404Z,100973.91
2023-01-05T13:22:04.147Z,100975.63
2023-01-05T13:27:06.857Z,100997.72
2023-01-05T13:38:05.303Z,101000.38
2023-01-05T13:43:33.364Z,101003.94
2023-01-05T13:49:03.215Z,101019.81
2023-01-05T13:54:13.433Z,101013.69
2023-01-05T13:59:34.675Z,101032.19
2023-01-05T14:04:46.922Z,101044.56
2023-01-05T14:09:52.960Z,101050.78
2023-01-05T14:15:02.805Z,101064.91
2023-01-05T14:20:27.693Z,101071.94
2023-01-05T14:25:47.424Z,101080.78
2023-01-05T14:30:50.943Z,101094.91
2023-01-05T14:35:54.416Z,101106.41
2023-01-05T14:40:56.888Z,101120.50
2023-01-05T14:46:05.814Z,101123.13
2023-01-05T14:51:17.109Z,101141.66
2023-01-05T14:56:25.424Z,101150.44
2023-01-05T15:01:34.228Z,101174.28
2023-01-05T15:06:55.168Z,101190.16
2023-01-05T15:12:08.891Z,101195.44
2023-01-05T15:17:38.943Z,101213.03
2023-01-05T15:22:59.105Z,101222.78
2023-01-05T15:28:22.920Z,101224.53
2023-01-05T15:33:33.352Z,101245.69
2023-01-05T15:38:45.433Z,101250.09
2023-01-05T15:43:48.970Z,101262.41
2023-01-05T15:48:53.948Z,101261.44
2023-01-05T15:54:00.929Z,101273.00
2023-01-05T15:59:17.496Z,101278.28
2023-01-05T16:04:20.452Z,101296.72
2023-01-05T16:09:29.229Z,101294.94
2023-01-05T16:14:37.471Z,101306.41
2023-01-05T16:19:47.331Z,101313.44
2023-01-05T16:24:57.768Z,101322.28
2023-01-05T16:30:14.555Z,101322.22
2023-01-05T16:35:41.739Z,101336.31
2023-01-05T16:41:05.479Z,101330.19
2023-01-05T16:46:39.866Z,101338.03
2023-01-05T16:51:42.480Z,101344.06
2023-01-05T16:56:53.529Z,101357.25
2023-01-05T17:01:55.708Z,101351.97
2023-01-05T17:06:57.989Z,101358.06
2023-01-05T17:12:01.583Z,101363.31
2023-01-05T17:17:03.284Z,101375.78
2023-01-05T17:22:07.676Z,101382.66
2023-01-05T17:27:14.026Z,101394.06
2023-01-05T17:32:16.201Z,101400.19
2023-01-05T17:37:18.589Z,101404.59
2023-01-05T17:42:23.743Z,101412.41
2023-01-05T17:47:25.784Z,101421.97
2023-01-05T17:52:27.661Z,101419.34
2023-01-05T17:57:30.720Z,101432.50
2023-01-05T18:02:32.723Z,101438.59
2023-01-05T18:07:35.719Z,101441.19
2023-01-05T18:17:41.383Z,101442.03
2023-01-05T18:22:43.602Z,101456.97
2023-01-05T18:27:47.828Z,101456.97
2023-01-05T18:32:49.957Z,101455.16
2023-01-05T18:37:52.115Z,101458.53
2023-01-05T18:42:55.451Z,101473.13
2023-01-05T18:47:57.883Z,101479.38
2023-01-05T18:52:59.782Z,101489.84
2023-01-05T18:58:02.921Z,101496.88
2023-01-05T19:03:04.738Z,101497.47
2023-01-05T19:08:06.774Z,101493.59
2023-01-05T19:13:10.304Z,101500.41
2023-01-05T19:18:12.067Z,101516.53
2023-01-05T19:23:14.062Z,101511.47
2023-01-05T19:28:17.606Z,101512.50
2023-01-05T19:33:19.393Z,101519.34
2023-01-05T19:38:21.736Z,101528.81
2023-01-05T19:43:24.995Z,101534.50
2023-01-05T19:48:27.401Z,101539.59
2023-01-05T19:53:29.984Z,101537.81
2023-01-05T19:58:33.707Z,101537.41
2023-01-05T20:03:35.744Z,101550.94
2023-01-05T20:08:38.087Z,101570.22
2023-01-05T20:13:41.255Z,101575.63
2023-01-05T20:18:42.953Z,101573.94
2023-01-05T20:23:44.931Z,101579.03
2023-01-05T20:28:49.171Z,101579.25
2023-01-05T20:33:51.993Z,101587.09
2023-01-05T20:38:54.579Z,101602.00
2023-01-05T20:43:58.340Z,101603.78
2023-01-05T20:49:00.227Z,101605.31
2023-01-05T20:54:02.309Z,101608.63
2023-01-05T20:59:07.359Z,101604.00
2023-01-05T21:04:09.115Z,101615.34
2023-01-05T21:09:11.960Z,101618.00
2023-01-05T21:14:15.986Z,101631.91
2023-01-05T21:19:20.714Z,101630.03
2023-01-05T21:24:24.020Z,101637.91
2023-01-05T21:29:27.380Z,101639.66
2023-01-05T21:34:29.403Z,101638.50
2023-01-05T21:39:31.315Z,101636.06
2023-01-05T21:44:34.851Z,101641.31
2023-01-05T21:49:37.305Z,101643.66
2023-01-05T21:54:39.255Z,101636.88
2023-01-05T21:59:42.672Z,101630.50
2023-01-05T22:04:44.475Z,101644.81
2023-01-05T22:09:46.194Z,101644.47
2023-01-05T22:14:49.680Z,101644.22
2023-01-05T22:19:51.467Z,101655.28
2023-01-05T22:24:53.645Z,101668.41
2023-01-05T22:29:57.023Z,101677.94
2023-01-05T22:34:59.104Z,101685.72
2023-01-05T22:40:01.139Z,101681.28
2023-01-05T22:45:05.051Z,101685.19
2023-01-05T22:50:07.805Z,101675.75
2023-01-05T22:55:09.931Z,101683.28
2023-01-05T23:00:14.085Z,101687.19
2023-01-05T23:05:16.243Z,101683.50
2023-01-05T23:10:18.906Z,101680.44
2023-01-05T23:15:22.768Z,101685.78
2023-01-05T23:20:24.518Z,101688.16
2023-01-05T23:25:26.530Z,101690.22
2023-01-05T23:30:29.913Z,101686.72
2023-01-05T23:35:34.656Z,101671.34
2023-01-05T23:40:40.759Z,101677.66
2023-01-05T23:45:45.092Z,101669.25
2023-01-05T23:50:48.594Z,101657.56
2023-01-05T23:55:51.157Z,101638.63
